Terminal Aerodrome Forecast
Issued by NWS

Home | Current Version | Previous Version | Text Only | Print | Product List | Glossary On
Versions: 1 2 3 4 5 6 7 8 9 10 11 12 13 14 15 16
000
FTUS41 KBTV 262336 CCA
TAFRUT
TAF COR
KRUT 262336Z 2700/2724 VRB03KT 2SM -SN BR OVC003
     FM270500 00000KT 1 1/2SM -SN BR OVC020
     FM271000 33004KT P6SM VCSH OVC015
     FM271400 34010G18KT P6SM SCT018 OVC025
     FM271800 34006KT P6SM OVC050
      AMD LTD TO CLD VIS AND WIND=

USA.gov is the U.S. government's official web portal to all federal, state and local government web resources and services.